sensor_id;sensor_type;location;lat;lon;timestamp;P1;durP1;ratioP1;P2;durP2;ratioP2
84521;SDS011;74758;50.066;20.008;2024-02-04T00:01:06;6.30;;;3.90;;
84521;SDS011;74758;50.066;20.008;2024-02-04T00:03:08;6.70;;;4.30;;
84521;SDS011;74758;50.066;20.008;2024-02-04T00:05:09;6.60;;;3.70;;
84521;SDS011;74758;50.066;20.008;2024-02-04T00:07:11;6.30;;;3.30;;
84521;SDS011;74758;50.066;20.008;2024-02-04T00:09:13;5.10;;;3.50;;
84521;SDS011;74758;50.066;20.008;2024-02-04T00:11:15;6.50;;;3.90;;
84521;SDS011;74758;50.066;20.008;2024-02-04T00:13:18;6.40;;;4.20;;
84521;SDS011;74758;50.066;20.008;2024-02-04T00:15:19;4.20;;;3.00;;
84521;SDS011;74758;50.066;20.008;2024-02-04T00:17:21;5.60;;;3.40;;
84521;SDS011;74758;50.066;20.008;2024-02-04T00:19:23;8.10;;;5.50;;
84521;SDS011;74758;50.066;20.008;2024-02-04T00:21:25;6.00;;;4.60;;
84521;SDS011;74758;50.066;20.008;2024-02-04T00:23:27;7.30;;;5.10;;
84521;SDS011;74758;50.066;20.008;2024-02-04T00:25:29;6.70;;;4.30;;
84521;SDS011;74758;50.066;20.008;2024-02-04T00:27:31;5.90;;;4.10;;
84521;SDS011;74758;50.066;20.008;2024-02-04T00:31:36;4.80;;;3.60;;
84521;SDS011;74758;50.066;20.008;2024-02-04T00:33:37;5.10;;;2.90;;
84521;SDS011;74758;50.066;20.008;2024-02-04T00:35:39;5.30;;;3.70;;
84521;SDS011;74758;50.066;20.008;2024-02-04T00:37:41;5.40;;;3.90;;
84521;SDS011;74758;50.066;20.008;2024-02-04T00:39:43;7.00;;;4.20;;
84521;SDS011;74758;50.066;20.008;2024-02-04T00:41:45;6.60;;;4.20;;
84521;SDS011;74758;50.066;20.008;2024-02-04T00:43:46;6.50;;;4.00;;
84521;SDS011;74758;50.066;20.008;2024-02-04T00:45:48;5.00;;;3.00;;
84521;SDS011;74758;50.066;20.008;2024-02-04T00:47:50;5.60;;;3.40;;
84521;SDS011;74758;50.066;20.008;2024-02-04T00:49:52;6.90;;;5.20;;
84521;SDS011;74758;50.066;20.008;2024-02-04T00:51:54;7.60;;;4.30;;
84521;SDS011;74758;50.066;20.008;2024-02-04T00:53:56;7.40;;;3.50;;
84521;SDS011;74758;50.066;20.008;2024-02-04T00:55:57;4.50;;;3.30;;
84521;SDS011;74758;50.066;20.008;2024-02-04T00:57:59;6.00;;;4.70;;
84521;SDS011;74758;50.066;20.008;2024-02-04T01:00:03;7.70;;;4.70;;
84521;SDS011;74758;50.066;20.008;2024-02-04T01:02:05;6.80;;;4.80;;
84521;SDS011;74758;50.066;20.008;2024-02-04T01:04:08;5.70;;;4.50;;
84521;SDS011;74758;50.066;20.008;2024-02-04T01:06:09;5.00;;;3.20;;
84521;SDS011;74758;50.066;20.008;2024-02-04T01:08:11;8.00;;;4.70;;
84521;SDS011;74758;50.066;20.008;2024-02-04T01:10:13;6.40;;;4.70;;
84521;SDS011;74758;50.066;20.008;2024-02-04T01:12:14;5.30;;;4.10;;
84521;SDS011;74758;50.066;20.008;2024-02-04T01:14:16;5.90;;;4.30;;
84521;SDS011;74758;50.066;20.008;2024-02-04T01:16:18;5.90;;;4.50;;
84521;SDS011;74758;50.066;20.008;2024-02-04T01:18:19;9.30;;;5.60;;
84521;SDS011;74758;50.066;20.008;2024-02-04T01:20:21;7.00;;;4.40;;
84521;SDS011;74758;50.066;20.008;2024-02-04T01:22:23;6.90;;;4.30;;
84521;SDS011;74758;50.066;20.008;2024-02-04T01:24:27;8.00;;;5.30;;
84521;SDS011;74758;50.066;20.008;2024-02-04T01:26:29;6.90;;;4.70;;
84521;SDS011;74758;50.066;20.008;2024-02-04T01:28:31;7.60;;;5.10;;
84521;SDS011;74758;50.066;20.008;2024-02-04T01:30:33;7.40;;;5.00;;
84521;SDS011;74758;50.066;20.008;2024-02-04T01:32:34;6.40;;;5.20;;
84521;SDS011;74758;50.066;20.008;2024-02-04T01:34:36;5.90;;;4.80;;
84521;SDS011;74758;50.066;20.008;2024-02-04T01:36:38;7.10;;;5.60;;
84521;SDS011;74758;50.066;20.008;2024-02-04T01:38:40;7.70;;;5.40;;
84521;SDS011;74758;50.066;20.008;2024-02-04T01:40:41;7.90;;;6.10;;
84521;SDS011;74758;50.066;20.008;2024-02-04T01:42:44;7.60;;;6.30;;
84521;SDS011;74758;50.066;20.008;2024-02-04T01:46:48;7.90;;;5.90;;
84521;SDS011;74758;50.066;20.008;2024-02-04T01:48:50;8.10;;;6.30;;
84521;SDS011;74758;50.066;20.008;2024-02-04T01:50:53;8.30;;;6.40;;
84521;SDS011;74758;50.066;20.008;2024-02-04T01:52:56;7.10;;;5.80;;
84521;SDS011;74758;50.066;20.008;2024-02-04T01:54:58;6.80;;;5.20;;
84521;SDS011;74758;50.066;20.008;2024-02-04T01:57:02;7.40;;;6.20;;
84521;SDS011;74758;50.066;20.008;2024-02-04T01:59:04;7.20;;;5.90;;
84521;SDS011;74758;50.066;20.008;2024-02-04T02:01:06;7.60;;;5.00;;
84521;SDS011;74758;50.066;20.008;2024-02-04T02:03:08;7.20;;;4.60;;
84521;SDS011;74758;50.066;20.008;2024-02-04T02:05:13;6.30;;;5.20;;
84521;SDS011;74758;50.066;20.008;2024-02-04T02:07:15;7.90;;;5.50;;
84521;SDS011;74758;50.066;20.008;2024-02-04T02:09:21;7.50;;;5.60;;
84521;SDS011;74758;50.066;20.008;2024-02-04T02:11:36;9.00;;;6.00;;
84521;SDS011;74758;50.066;20.008;2024-02-04T02:13:41;6.60;;;5.60;;
84521;SDS011;74758;50.066;20.008;2024-02-04T02:15:48;7.20;;;5.00;;
84521;SDS011;74758;50.066;20.008;2024-02-04T02:20:29;9.10;;;6.10;;
84521;SDS011;74758;50.066;20.008;2024-02-04T02:23:04;8.30;;;5.40;;
84521;SDS011;74758;50.066;20.008;2024-02-04T02:25:08;9.50;;;7.90;;
84521;SDS011;74758;50.066;20.008;2024-02-04T02:27:12;9.80;;;5.40;;
84521;SDS011;74758;50.066;20.008;2024-02-04T02:29:13;9.90;;;5.60;;
84521;SDS011;74758;50.066;20.008;2024-02-04T02:31:16;7.40;;;5.00;;
84521;SDS011;74758;50.066;20.008;2024-02-04T02:33:25;8.70;;;5.70;;
84521;SDS011;74758;50.066;20.008;2024-02-04T02:35:27;7.40;;;5.40;;
84521;SDS011;74758;50.066;20.008;2024-02-04T02:37:43;6.70;;;5.00;;
84521;SDS011;74758;50.066;20.008;2024-02-04T02:42:07;7.30;;;5.40;;
84521;SDS011;74758;50.066;20.008;2024-02-04T02:44:13;6.50;;;4.80;;
84521;SDS011;74758;50.066;20.008;2024-02-04T02:46:16;7.50;;;5.10;;
84521;SDS011;74758;50.066;20.008;2024-02-04T02:48:18;7.30;;;6.00;;
84521;SDS011;74758;50.066;20.008;2024-02-04T02:50:21;7.40;;;5.20;;
84521;SDS011;74758;50.066;20.008;2024-02-04T02:52:23;7.20;;;4.40;;
84521;SDS011;74758;50.066;20.008;2024-02-04T02:54:25;5.60;;;4.60;;
84521;SDS011;74758;50.066;20.008;2024-02-04T02:56:26;5.80;;;4.80;;
84521;SDS011;74758;50.066;20.008;2024-02-04T02:58:28;7.20;;;4.10;;
84521;SDS011;74758;50.066;20.008;2024-02-04T03:00:29;6.00;;;4.30;;
84521;SDS011;74758;50.066;20.008;2024-02-04T03:02:31;6.10;;;4.70;;
84521;SDS011;74758;50.066;20.008;2024-02-04T03:04:34;5.50;;;4.60;;
84521;SDS011;74758;50.066;20.008;2024-02-04T03:06:35;6.10;;;4.40;;
84521;SDS011;74758;50.066;20.008;2024-02-04T03:08:37;4.90;;;3.80;;
84521;SDS011;74758;50.066;20.008;2024-02-04T03:10:39;7.10;;;4.40;;
84521;SDS011;74758;50.066;20.008;2024-02-04T03:12:40;5.00;;;4.00;;
84521;SDS011;74758;50.066;20.008;2024-02-04T03:14:42;4.30;;;3.30;;
84521;SDS011;74758;50.066;20.008;2024-02-04T03:16:44;4.50;;;3.20;;
84521;SDS011;74758;50.066;20.008;2024-02-04T03:18:46;6.80;;;2.90;;
84521;SDS011;74758;50.066;20.008;2024-02-04T03:20:48;4.20;;;3.10;;
84521;SDS011;74758;50.066;20.008;2024-02-04T03:22:50;5.40;;;2.90;;
84521;SDS011;74758;50.066;20.008;2024-02-04T03:24:51;4.90;;;3.40;;
84521;SDS011;74758;50.066;20.008;2024-02-04T03:26:53;5.50;;;3.00;;
84521;SDS011;74758;50.066;20.008;2024-02-04T03:28:55;6.30;;;3.40;;
84521;SDS011;74758;50.066;20.008;2024-02-04T03:30:57;5.20;;;3.50;;
84521;SDS011;74758;50.066;20.008;2024-02-04T03:32:59;4.30;;;3.20;;
84521;SDS011;74758;50.066;20.008;2024-02-04T03:35:01;4.70;;;3.20;;
84521;SDS011;74758;50.066;20.008;2024-02-04T03:37:03;3.90;;;2.50;;
84521;SDS011;74758;50.066;20.008;2024-02-04T03:39:05;4.10;;;2.80;;
84521;SDS011;74758;50.066;20.008;2024-02-04T03:41:07;3.40;;;2.40;;
84521;SDS011;74758;50.066;20.008;2024-02-04T03:43:09;3.40;;;2.60;;
84521;SDS011;74758;50.066;20.008;2024-02-04T03:45:10;4.20;;;2.30;;
84521;SDS011;74758;50.066;20.008;2024-02-04T03:47:12;5.00;;;3.40;;
84521;SDS011;74758;50.066;20.008;2024-02-04T03:49:14;4.50;;;2.60;;
84521;SDS011;74758;50.066;20.008;2024-02-04T03:51:16;4.30;;;2.20;;
84521;SDS011;74758;50.066;20.008;2024-02-04T03:53:20;3.00;;;2.20;;
84521;SDS011;74758;50.066;20.008;2024-02-04T03:55:24;3.30;;;2.10;;
84521;SDS011;74758;50.066;20.008;2024-02-04T03:57:26;3.90;;;3.20;;
84521;SDS011;74758;50.066;20.008;2024-02-04T03:59:28;3.10;;;2.00;;
84521;SDS011;74758;50.066;20.008;2024-02-04T04:01:30;2.60;;;1.90;;
84521;SDS011;74758;50.066;20.008;2024-02-04T04:03:32;3.40;;;2.10;;
84521;SDS011;74758;50.066;20.008;2024-02-04T04:05:33;4.60;;;2.10;;
84521;SDS011;74758;50.066;20.008;2024-02-04T04:07:35;4.20;;;2.10;;
84521;SDS011;74758;50.066;20.008;2024-02-04T04:09:37;2.90;;;2.20;;
84521;SDS011;74758;50.066;20.008;2024-02-04T04:11:38;3.80;;;2.30;;
84521;SDS011;74758;50.066;20.008;2024-02-04T04:13:40;2.70;;;1.90;;
84521;SDS011;74758;50.066;20.008;2024-02-04T04:15:42;4.40;;;3.10;;
84521;SDS011;74758;50.066;20.008;2024-02-04T04:17:44;5.10;;;2.70;;
84521;SDS011;74758;50.066;20.008;2024-02-04T04:19:45;4.00;;;2.90;;
84521;SDS011;74758;50.066;20.008;2024-02-04T04:21:47;2.60;;;2.00;;
84521;SDS011;74758;50.066;20.008;2024-02-04T04:23:49;3.30;;;2.10;;
84521;SDS011;74758;50.066;20.008;2024-02-04T04:25:51;3.80;;;2.20;;
84521;SDS011;74758;50.066;20.008;2024-02-04T04:27:53;3.70;;;2.10;;
84521;SDS011;74758;50.066;20.008;2024-02-04T04:29:54;4.30;;;2.80;;
84521;SDS011;74758;50.066;20.008;2024-02-04T04:31:56;2.70;;;2.30;;
84521;SDS011;74758;50.066;20.008;2024-02-04T04:33:58;4.60;;;2.70;;
84521;SDS011;74758;50.066;20.008;2024-02-04T04:36:00;3.70;;;2.80;;
84521;SDS011;74758;50.066;20.008;2024-02-04T04:38:01;2.70;;;1.50;;
84521;SDS011;74758;50.066;20.008;2024-02-04T04:40:03;3.70;;;1.60;;
84521;SDS011;74758;50.066;20.008;2024-02-04T04:42:05;5.10;;;2.60;;
84521;SDS011;74758;50.066;20.008;2024-02-04T04:44:07;3.20;;;1.20;;
84521;SDS011;74758;50.066;20.008;2024-02-04T04:46:09;2.90;;;1.40;;
84521;SDS011;74758;50.066;20.008;2024-02-04T04:48:10;2.70;;;1.40;;
84521;SDS011;74758;50.066;20.008;2024-02-04T04:50:12;3.40;;;1.80;;
84521;SDS011;74758;50.066;20.008;2024-02-04T04:52:14;5.80;;;2.10;;
84521;SDS011;74758;50.066;20.008;2024-02-04T04:54:16;3.00;;;1.90;;
84521;SDS011;74758;50.066;20.008;2024-02-04T04:56:18;3.50;;;1.20;;
84521;SDS011;74758;50.066;20.008;2024-02-04T04:58:19;2.70;;;1.60;;
84521;SDS011;74758;50.066;20.008;2024-02-04T05:00:21;3.20;;;1.50;;
84521;SDS011;74758;50.066;20.008;2024-02-04T05:02:23;2.60;;;1.90;;
84521;SDS011;74758;50.066;20.008;2024-02-04T05:04:24;3.10;;;1.40;;
84521;SDS011;74758;50.066;20.008;2024-02-04T05:06:27;5.00;;;4.50;;
84521;SDS011;74758;50.066;20.008;2024-02-04T05:08:29;3.20;;;1.90;;
84521;SDS011;74758;50.066;20.008;2024-02-04T05:10:30;3.60;;;2.50;;
84521;SDS011;74758;50.066;20.008;2024-02-04T05:12:32;4.80;;;4.30;;
84521;SDS011;74758;50.066;20.008;2024-02-04T05:14:35;3.80;;;2.00;;
84521;SDS011;74758;50.066;20.008;2024-02-04T05:16:37;5.10;;;2.20;;
84521;SDS011;74758;50.066;20.008;2024-02-04T05:18:39;5.30;;;1.60;;
84521;SDS011;74758;50.066;20.008;2024-02-04T05:20:41;5.00;;;2.00;;
84521;SDS011;74758;50.066;20.008;2024-02-04T05:22:45;5.90;;;5.40;;
84521;SDS011;74758;50.066;20.008;2024-02-04T05:24:46;3.00;;;1.80;;
84521;SDS011;74758;50.066;20.008;2024-02-04T05:26:48;3.40;;;2.10;;
84521;SDS011;74758;50.066;20.008;2024-02-04T05:28:50;3.70;;;2.30;;
84521;SDS011;74758;50.066;20.008;2024-02-04T05:30:51;3.50;;;1.90;;
84521;SDS011;74758;50.066;20.008;2024-02-04T05:32:53;3.50;;;2.00;;
84521;SDS011;74758;50.066;20.008;2024-02-04T05:34:55;6.10;;;2.10;;
84521;SDS011;74758;50.066;20.008;2024-02-04T05:36:56;4.50;;;2.40;;
84521;SDS011;74758;50.066;20.008;2024-02-04T05:39:08;4.00;;;1.90;;
84521;SDS011;74758;50.066;20.008;2024-02-04T05:43:14;4.20;;;2.20;;
84521;SDS011;74758;50.066;20.008;2024-02-04T05:45:17;3.90;;;3.60;;
84521;SDS011;74758;50.066;20.008;2024-02-04T05:47:19;3.90;;;2.00;;
84521;SDS011;74758;50.066;20.008;2024-02-04T05:49:20;3.70;;;2.10;;
84521;SDS011;74758;50.066;20.008;2024-02-04T05:51:22;4.80;;;2.20;;
84521;SDS011;74758;50.066;20.008;2024-02-04T05:53:24;3.50;;;1.50;;
84521;SDS011;74758;50.066;20.008;2024-02-04T05:55:26;4.40;;;2.20;;
84521;SDS011;74758;50.066;20.008;2024-02-04T05:57:27;4.10;;;2.90;;
84521;SDS011;74758;50.066;20.008;2024-02-04T05:59:29;6.20;;;2.60;;
84521;SDS011;74758;50.066;20.008;2024-02-04T06:01:31;3.70;;;2.00;;
84521;SDS011;74758;50.066;20.008;2024-02-04T06:03:34;3.80;;;2.80;;
84521;SDS011;74758;50.066;20.008;2024-02-04T06:05:36;3.20;;;2.10;;
84521;SDS011;74758;50.066;20.008;2024-02-04T06:07:38;3.00;;;2.30;;
84521;SDS011;74758;50.066;20.008;2024-02-04T06:09:39;3.00;;;2.10;;
84521;SDS011;74758;50.066;20.008;2024-02-04T06:11:44;2.40;;;1.60;;
84521;SDS011;74758;50.066;20.008;2024-02-04T06:13:46;2.90;;;1.60;;
84521;SDS011;74758;50.066;20.008;2024-02-04T06:15:48;3.60;;;1.60;;
84521;SDS011;74758;50.066;20.008;2024-02-04T06:17:50;2.30;;;1.40;;
84521;SDS011;74758;50.066;20.008;2024-02-04T06:19:52;2.70;;;1.50;;
84521;SDS011;74758;50.066;20.008;2024-02-04T06:21:53;3.80;;;1.70;;
84521;SDS011;74758;50.066;20.008;2024-02-04T06:23:55;3.20;;;2.20;;
84521;SDS011;74758;50.066;20.008;2024-02-04T06:25:56;2.80;;;1.60;;
84521;SDS011;74758;50.066;20.008;2024-02-04T06:27:58;2.50;;;1.90;;
84521;SDS011;74758;50.066;20.008;2024-02-04T06:30:00;3.80;;;1.70;;
84521;SDS011;74758;50.066;20.008;2024-02-04T06:32:02;3.20;;;1.50;;
84521;SDS011;74758;50.066;20.008;2024-02-04T06:34:04;4.50;;;1.90;;
84521;SDS011;74758;50.066;20.008;2024-02-04T06:36:10;3.30;;;2.20;;
84521;SDS011;74758;50.066;20.008;2024-02-04T06:38:12;2.60;;;1.90;;
84521;SDS011;74758;50.066;20.008;2024-02-04T06:40:13;2.90;;;2.60;;
84521;SDS011;74758;50.066;20.008;2024-02-04T06:42:15;8.00;;;2.50;;
84521;SDS011;74758;50.066;20.008;2024-02-04T06:44:17;3.30;;;2.50;;
84521;SDS011;74758;50.066;20.008;2024-02-04T06:46:25;6.10;;;4.00;;
84521;SDS011;74758;50.066;20.008;2024-02-04T06:48:28;3.80;;;2.00;;
84521;SDS011;74758;50.066;20.008;2024-02-04T06:50:30;3.50;;;2.40;;
84521;SDS011;74758;50.066;20.008;2024-02-04T06:52:32;3.80;;;2.10;;
84521;SDS011;74758;50.066;20.008;2024-02-04T06:54:33;2.80;;;2.10;;
84521;SDS011;74758;50.066;20.008;2024-02-04T06:56:35;3.80;;;2.60;;
84521;SDS011;74758;50.066;20.008;2024-02-04T06:58:38;3.30;;;2.00;;
84521;SDS011;74758;50.066;20.008;2024-02-04T07:00:41;4.40;;;1.90;;
84521;SDS011;74758;50.066;20.008;2024-02-04T07:02:43;2.50;;;1.50;;
84521;SDS011;74758;50.066;20.008;2024-02-04T07:04:44;3.20;;;2.20;;
84521;SDS011;74758;50.066;20.008;2024-02-04T07:06:47;4.30;;;1.90;;
84521;SDS011;74758;50.066;20.008;2024-02-04T07:08:49;3.60;;;2.00;;
84521;SDS011;74758;50.066;20.008;2024-02-04T07:10:51;4.00;;;1.50;;
84521;SDS011;74758;50.066;20.008;2024-02-04T07:12:53;3.60;;;2.50;;
84521;SDS011;74758;50.066;20.008;2024-02-04T07:14:55;3.50;;;2.40;;
84521;SDS011;74758;50.066;20.008;2024-02-04T07:16:57;5.20;;;3.60;;
84521;SDS011;74758;50.066;20.008;2024-02-04T07:18:58;5.80;;;2.70;;
84521;SDS011;74758;50.066;20.008;2024-02-04T07:21:00;3.70;;;2.60;;
84521;SDS011;74758;50.066;20.008;2024-02-04T07:23:02;4.50;;;2.80;;
84521;SDS011;74758;50.066;20.008;2024-02-04T07:27:07;3.10;;;2.60;;
84521;SDS011;74758;50.066;20.008;2024-02-04T07:29:09;4.80;;;2.30;;
84521;SDS011;74758;50.066;20.008;2024-02-04T07:31:11;3.30;;;1.70;;
84521;SDS011;74758;50.066;20.008;2024-02-04T07:33:13;3.20;;;1.80;;
84521;SDS011;74758;50.066;20.008;2024-02-04T07:35:15;4.80;;;2.60;;
84521;SDS011;74758;50.066;20.008;2024-02-04T07:37:17;4.20;;;2.00;;
84521;SDS011;74758;50.066;20.008;2024-02-04T07:39:19;4.30;;;2.60;;
84521;SDS011;74758;50.066;20.008;2024-02-04T07:41:21;6.60;;;2.80;;
84521;SDS011;74758;50.066;20.008;2024-02-04T07:43:23;3.00;;;2.10;;
84521;SDS011;74758;50.066;20.008;2024-02-04T07:45:24;3.30;;;2.10;;
84521;SDS011;74758;50.066;20.008;2024-02-04T07:47:26;4.20;;;2.30;;
84521;SDS011;74758;50.066;20.008;2024-02-04T07:49:27;4.80;;;2.10;;
84521;SDS011;74758;50.066;20.008;2024-02-04T07:51:30;3.40;;;3.10;;
84521;SDS011;74758;50.066;20.008;2024-02-04T07:53:32;3.50;;;2.30;;
84521;SDS011;74758;50.066;20.008;2024-02-04T07:55:33;3.50;;;1.60;;
84521;SDS011;74758;50.066;20.008;2024-02-04T07:57:35;4.60;;;3.20;;
84521;SDS011;74758;50.066;20.008;2024-02-04T07:59:37;3.90;;;2.20;;
84521;SDS011;74758;50.066;20.008;2024-02-04T08:01:39;4.00;;;2.70;;
84521;SDS011;74758;50.066;20.008;2024-02-04T08:03:41;3.40;;;2.30;;
84521;SDS011;74758;50.066;20.008;2024-02-04T08:05:43;6.10;;;2.30;;
84521;SDS011;74758;50.066;20.008;2024-02-04T08:07:45;5.30;;;2.10;;
84521;SDS011;74758;50.066;20.008;2024-02-04T08:09:47;5.20;;;2.40;;
84521;SDS011;74758;50.066;20.008;2024-02-04T08:11:48;3.80;;;2.30;;
84521;SDS011;74758;50.066;20.008;2024-02-04T08:13:50;3.70;;;2.20;;
84521;SDS011;74758;50.066;20.008;2024-02-04T08:15:52;2.70;;;1.30;;
84521;SDS011;74758;50.066;20.008;2024-02-04T08:17:53;3.30;;;1.60;;
84521;SDS011;74758;50.066;20.008;2024-02-04T08:19:55;4.20;;;1.80;;
84521;SDS011;74758;50.066;20.008;2024-02-04T08:21:57;4.60;;;2.10;;
84521;SDS011;74758;50.066;20.008;2024-02-04T08:24:00;4.20;;;1.70;;
84521;SDS011;74758;50.066;20.008;2024-02-04T08:26:02;6.10;;;1.90;;
84521;SDS011;74758;50.066;20.008;2024-02-04T08:28:05;3.00;;;1.40;;
84521;SDS011;74758;50.066;20.008;2024-02-04T08:30:07;3.30;;;1.50;;
84521;SDS011;74758;50.066;20.008;2024-02-04T08:32:08;6.00;;;1.50;;
84521;SDS011;74758;50.066;20.008;2024-02-04T08:34:10;3.20;;;1.50;;
84521;SDS011;74758;50.066;20.008;2024-02-04T08:36:12;5.00;;;2.60;;
84521;SDS011;74758;50.066;20.008;2024-02-04T08:38:14;5.60;;;3.00;;
84521;SDS011;74758;50.066;20.008;2024-02-04T08:40:16;3.80;;;1.90;;
84521;SDS011;74758;50.066;20.008;2024-02-04T08:42:18;3.60;;;2.00;;
84521;SDS011;74758;50.066;20.008;2024-02-04T08:44:19;3.90;;;1.80;;
84521;SDS011;74758;50.066;20.008;2024-02-04T08:46:35;4.90;;;1.70;;
84521;SDS011;74758;50.066;20.008;2024-02-04T08:48:37;5.80;;;2.10;;
84521;SDS011;74758;50.066;20.008;2024-02-04T08:50:39;4.50;;;1.70;;
84521;SDS011;74758;50.066;20.008;2024-02-04T08:52:44;4.60;;;1.50;;
84521;SDS011;74758;50.066;20.008;2024-02-04T08:54:49;5.70;;;1.90;;
84521;SDS011;74758;50.066;20.008;2024-02-04T08:56:50;4.00;;;1.20;;
84521;SDS011;74758;50.066;20.008;2024-02-04T08:58:52;3.80;;;1.50;;
84521;SDS011;74758;50.066;20.008;2024-02-04T09:00:53;7.00;;;1.90;;
84521;SDS011;74758;50.066;20.008;2024-02-04T09:02:56;5.70;;;1.60;;
84521;SDS011;74758;50.066;20.008;2024-02-04T09:04:58;5.20;;;1.70;;
84521;SDS011;74758;50.066;20.008;2024-02-04T09:06:59;7.40;;;1.90;;
84521;SDS011;74758;50.066;20.008;2024-02-04T09:09:01;5.90;;;1.80;;
84521;SDS011;74758;50.066;20.008;2024-02-04T09:11:03;6.60;;;2.30;;
84521;SDS011;74758;50.066;20.008;2024-02-04T09:13:05;6.00;;;2.30;;
84521;SDS011;74758;50.066;20.008;2024-02-04T09:15:07;4.60;;;1.70;;
84521;SDS011;74758;50.066;20.008;2024-02-04T09:17:10;6.20;;;2.90;;
84521;SDS011;74758;50.066;20.008;2024-02-04T09:19:11;4.50;;;2.20;;
84521;SDS011;74758;50.066;20.008;2024-02-04T09:21:13;5.20;;;2.50;;
84521;SDS011;74758;50.066;20.008;2024-02-04T09:23:16;4.50;;;2.90;;
84521;SDS011;74758;50.066;20.008;2024-02-04T09:25:17;13.10;;;2.60;;
84521;SDS011;74758;50.066;20.008;2024-02-04T09:27:19;5.50;;;2.40;;
84521;SDS011;74758;50.066;20.008;2024-02-04T09:29:21;5.90;;;2.80;;
84521;SDS011;74758;50.066;20.008;2024-02-04T09:31:23;6.10;;;3.00;;
84521;SDS011;74758;50.066;20.008;2024-02-04T09:33:25;6.60;;;3.60;;
84521;SDS011;74758;50.066;20.008;2024-02-04T09:35:27;6.50;;;3.10;;
84521;SDS011;74758;50.066;20.008;2024-02-04T09:37:29;6.30;;;3.40;;
84521;SDS011;74758;50.066;20.008;2024-02-04T09:39:31;5.90;;;2.80;;
84521;SDS011;74758;50.066;20.008;2024-02-04T09:41:33;6.70;;;2.90;;
84521;SDS011;74758;50.066;20.008;2024-02-04T09:43:35;9.00;;;3.50;;
84521;SDS011;74758;50.066;20.008;2024-02-04T09:45:39;7.70;;;4.20;;
84521;SDS011;74758;50.066;20.008;2024-02-04T09:47:41;8.10;;;3.00;;
84521;SDS011;74758;50.066;20.008;2024-02-04T09:49:44;4.80;;;3.00;;
84521;SDS011;74758;50.066;20.008;2024-02-04T09:51:46;7.90;;;4.20;;
84521;SDS011;74758;50.066;20.008;2024-02-04T09:53:51;6.40;;;2.00;;
84521;SDS011;74758;50.066;20.008;2024-02-04T09:55:54;7.00;;;2.60;;
84521;SDS011;74758;50.066;20.008;2024-02-04T09:57:57;8.30;;;2.90;;
84521;SDS011;74758;50.066;20.008;2024-02-04T09:59:59;5.40;;;2.40;;
84521;SDS011;74758;50.066;20.008;2024-02-04T10:02:02;5.90;;;2.50;;
84521;SDS011;74758;50.066;20.008;2024-02-04T10:04:06;6.40;;;2.30;;
84521;SDS011;74758;50.066;20.008;2024-02-04T10:06:08;7.00;;;3.40;;
84521;SDS011;74758;50.066;20.008;2024-02-04T10:08:10;7.70;;;2.70;;
84521;SDS011;74758;50.066;20.008;2024-02-04T10:10:12;4.50;;;2.40;;
84521;SDS011;74758;50.066;20.008;2024-02-04T10:12:14;4.70;;;2.40;;
84521;SDS011;74758;50.066;20.008;2024-02-04T10:14:16;5.50;;;3.10;;
84521;SDS011;74758;50.066;20.008;2024-02-04T10:16:20;4.40;;;1.90;;
84521;SDS011;74758;50.066;20.008;2024-02-04T10:18:23;9.70;;;4.70;;
84521;SDS011;74758;50.066;20.008;2024-02-04T10:20:25;7.10;;;2.80;;
84521;SDS011;74758;50.066;20.008;2024-02-04T10:22:27;5.00;;;2.30;;
84521;SDS011;74758;50.066;20.008;2024-02-04T10:24:31;5.30;;;2.20;;
84521;SDS011;74758;50.066;20.008;2024-02-04T10:26:33;5.10;;;2.80;;
84521;SDS011;74758;50.066;20.008;2024-02-04T10:28:38;6.30;;;2.40;;
84521;SDS011;74758;50.066;20.008;2024-02-04T10:30:42;5.90;;;2.80;;
84521;SDS011;74758;50.066;20.008;2024-02-04T10:32:43;5.50;;;2.90;;
84521;SDS011;74758;50.066;20.008;2024-02-04T10:36:48;8.50;;;2.50;;
84521;SDS011;74758;50.066;20.008;2024-02-04T10:38:50;4.00;;;1.80;;
84521;SDS011;74758;50.066;20.008;2024-02-04T10:40:54;7.50;;;3.40;;
84521;SDS011;74758;50.066;20.008;2024-02-04T10:42:58;7.00;;;4.60;;
84521;SDS011;74758;50.066;20.008;2024-02-04T10:45:06;7.30;;;3.10;;
84521;SDS011;74758;50.066;20.008;2024-02-04T10:47:10;6.20;;;3.30;;
84521;SDS011;74758;50.066;20.008;2024-02-04T10:49:18;5.80;;;2.10;;
84521;SDS011;74758;50.066;20.008;2024-02-04T10:51:23;7.10;;;5.20;;
84521;SDS011;74758;50.066;20.008;2024-02-04T10:53:26;5.70;;;2.90;;
84521;SDS011;74758;50.066;20.008;2024-02-04T10:55:29;7.50;;;2.90;;
84521;SDS011;74758;50.066;20.008;2024-02-04T10:57:32;7.50;;;5.40;;
84521;SDS011;74758;50.066;20.008;2024-02-04T10:59:34;5.60;;;2.70;;
84521;SDS011;74758;50.066;20.008;2024-02-04T11:01:36;5.30;;;2.60;;
84521;SDS011;74758;50.066;20.008;2024-02-04T11:03:38;3.80;;;3.50;;
84521;SDS011;74758;50.066;20.008;2024-02-04T11:05:41;3.90;;;1.80;;
84521;SDS011;74758;50.066;20.008;2024-02-04T11:07:44;8.90;;;3.10;;
84521;SDS011;74758;50.066;20.008;2024-02-04T11:09:46;7.10;;;2.50;;
84521;SDS011;74758;50.066;20.008;2024-02-04T11:11:51;6.20;;;5.30;;
84521;SDS011;74758;50.066;20.008;2024-02-04T11:13:58;5.80;;;2.60;;
84521;SDS011;74758;50.066;20.008;2024-02-04T11:16:07;5.40;;;2.70;;
84521;SDS011;74758;50.066;20.008;2024-02-04T11:20:44;7.70;;;2.30;;
84521;SDS011;74758;50.066;20.008;2024-02-04T11:27:24;7.50;;;2.80;;
84521;SDS011;74758;50.066;20.008;2024-02-04T11:29:27;6.10;;;2.10;;
84521;SDS011;74758;50.066;20.008;2024-02-04T11:31:29;5.80;;;2.10;;
84521;SDS011;74758;50.066;20.008;2024-02-04T11:33:31;5.30;;;1.90;;
84521;SDS011;74758;50.066;20.008;2024-02-04T11:35:34;7.20;;;2.40;;
84521;SDS011;74758;50.066;20.008;2024-02-04T11:37:37;7.00;;;5.00;;
84521;SDS011;74758;50.066;20.008;2024-02-04T11:39:47;5.30;;;2.60;;
84521;SDS011;74758;50.066;20.008;2024-02-04T11:41:50;6.30;;;3.50;;
84521;SDS011;74758;50.066;20.008;2024-02-04T11:43:53;6.20;;;2.20;;
84521;SDS011;74758;50.066;20.008;2024-02-04T11:46:05;7.30;;;2.40;;
84521;SDS011;74758;50.066;20.008;2024-02-04T11:48:08;8.40;;;3.30;;
84521;SDS011;74758;50.066;20.008;2024-02-04T11:50:25;6.10;;;2.60;;
84521;SDS011;74758;50.066;20.008;2024-02-04T11:52:31;6.40;;;2.00;;
84521;SDS011;74758;50.066;20.008;2024-02-04T11:54:33;6.50;;;5.40;;
84521;SDS011;74758;50.066;20.008;2024-02-04T11:56:35;5.70;;;4.10;;
84521;SDS011;74758;50.066;20.008;2024-02-04T11:58:37;6.20;;;2.50;;
84521;SDS011;74758;50.066;20.008;2024-02-04T12:00:42;7.80;;;3.40;;
84521;SDS011;74758;50.066;20.008;2024-02-04T12:02:59;7.50;;;3.60;;
84521;SDS011;74758;50.066;20.008;2024-02-04T12:05:04;7.60;;;3.80;;
84521;SDS011;74758;50.066;20.008;2024-02-04T12:07:07;7.50;;;5.60;;
84521;SDS011;74758;50.066;20.008;2024-02-04T12:09:10;5.90;;;2.90;;
84521;SDS011;74758;50.066;20.008;2024-02-04T12:11:12;5.20;;;3.20;;
84521;SDS011;74758;50.066;20.008;2024-02-04T12:13:14;7.60;;;3.70;;
84521;SDS011;74758;50.066;20.008;2024-02-04T12:15:15;8.80;;;3.40;;
84521;SDS011;74758;50.066;20.008;2024-02-04T12:17:18;8.10;;;4.30;;
84521;SDS011;74758;50.066;20.008;2024-02-04T12:19:21;6.90;;;3.40;;
84521;SDS011;74758;50.066;20.008;2024-02-04T12:21:24;8.10;;;3.80;;
84521;SDS011;74758;50.066;20.008;2024-02-04T12:23:27;7.70;;;5.80;;
84521;SDS011;74758;50.066;20.008;2024-02-04T12:25:31;7.80;;;3.50;;
84521;SDS011;74758;50.066;20.008;2024-02-04T12:27:33;7.60;;;3.70;;
84521;SDS011;74758;50.066;20.008;2024-02-04T12:29:36;6.70;;;3.90;;